createdAt,value
2022-09-26T00:00:42.354Z,9.37
2022-09-26T00:01:42.403Z,9.36
2022-09-26T00:02:42.434Z,9.36
2022-09-26T00:03:42.320Z,9.36
2022-09-26T00:04:42.321Z,9.32
2022-09-26T00:05:42.335Z,9.32
2022-09-26T00:06:42.321Z,9.32
2022-09-26T00:07:42.288Z,9.36
2022-09-26T00:08:42.303Z,9.32
2022-09-26T00:09:42.277Z,9.36
2022-09-26T00:10:42.287Z,9.32
2022-09-26T00:11:42.252Z,9.37
2022-09-26T00:12:42.256Z,9.34
2022-09-26T00:13:42.256Z,9.31
2022-09-26T00:14:42.249Z,9.31
2022-09-26T00:15:42.226Z,9.18
2022-09-26T00:16:42.307Z,9.36
2022-09-26T00:17:42.235Z,9.39
2022-09-26T00:18:42.210Z,9.40
2022-09-26T00:19:42.245Z,9.23
2022-09-26T00:20:42.198Z,9.29
2022-09-26T00:21:42.188Z,9.31
2022-09-26T00:22:42.190Z,9.29
2022-09-26T00:23:42.176Z,9.34
2022-09-26T00:24:42.187Z,9.19
2022-09-26T00:25:42.199Z,9.18
2022-09-26T00:26:42.169Z,9.03
2022-09-26T00:27:42.150Z,8.99
2022-09-26T00:28:42.148Z,8.91
2022-09-26T00:29:42.138Z,8.92
2022-09-26T00:30:42.171Z,8.89
2022-09-26T00:31:42.147Z,8.89
2022-09-26T00:32:42.129Z,9.06
2022-09-26T00:33:42.112Z,9.03
2022-09-26T00:34:42.113Z,9.02
2022-09-26T00:35:42.106Z,9.02
2022-09-26T00:36:42.101Z,8.95
2022-09-26T00:37:42.185Z,8.79
2022-09-26T00:38:42.101Z,8.73
2022-09-26T00:39:42.079Z,8.74
2022-09-26T00:40:42.158Z,8.66
2022-09-26T00:41:42.069Z,8.67
2022-09-26T00:42:42.068Z,8.60
2022-09-26T00:43:42.074Z,8.53
2022-09-26T00:44:42.053Z,8.49
2022-09-26T00:45:42.092Z,8.45
2022-09-26T00:46:42.042Z,8.49
2022-09-26T00:47:42.028Z,8.41
2022-09-26T00:48:42.048Z,8.48
2022-09-26T00:49:42.014Z,8.37
2022-09-26T00:50:42.018Z,8.45
2022-09-26T00:51:41.994Z,8.46
2022-09-26T00:52:42.003Z,8.48
2022-09-26T00:53:41.988Z,8.51
2022-09-26T00:54:42.010Z,8.42
2022-09-26T00:55:41.970Z,8.41
2022-09-26T00:56:41.967Z,8.34
2022-09-26T00:57:41.954Z,8.42
2022-09-26T00:58:41.950Z,8.28
2022-09-26T00:59:41.970Z,8.34
2022-09-26T01:00:42.483Z,8.30
2022-09-26T01:01:42.120Z,8.28
2022-09-26T01:02:41.987Z,8.36
2022-09-26T01:03:41.944Z,8.44
2022-09-26T01:04:41.914Z,8.48
2022-09-26T01:05:41.899Z,8.51
2022-09-26T01:06:41.928Z,8.48
2022-09-26T01:07:41.923Z,8.34
2022-09-26T01:08:41.907Z,8.34
2022-09-26T01:09:41.893Z,8.33
2022-09-26T01:10:41.875Z,8.24
2022-09-26T01:11:41.883Z,8.28
2022-09-26T01:12:41.867Z,8.33
2022-09-26T01:13:41.851Z,8.19
2022-09-26T01:14:41.840Z,8.23
2022-09-26T01:15:41.856Z,8.10
2022-09-26T01:16:41.878Z,8.20
2022-09-26T01:17:41.827Z,8.16
2022-09-26T01:18:41.843Z,8.26
2022-09-26T01:19:41.815Z,8.28
2022-09-26T01:20:41.809Z,8.27
2022-09-26T01:21:41.817Z,8.18
2022-09-26T01:22:41.793Z,8.18
2022-09-26T01:23:41.810Z,8.20
2022-09-26T01:24:41.776Z,8.27
2022-09-26T01:25:41.773Z,8.19
2022-09-26T01:26:41.795Z,8.18
2022-09-26T01:27:41.767Z,8.26
2022-09-26T01:28:41.780Z,8.20
2022-09-26T01:29:41.744Z,8.24
2022-09-26T01:30:41.795Z,8.23
2022-09-26T01:31:41.739Z,8.36
2022-09-26T01:32:41.736Z,8.37
2022-09-26T01:33:41.721Z,8.33
2022-09-26T01:34:41.740Z,8.26
2022-09-26T01:35:41.708Z,8.27
2022-09-26T01:36:41.707Z,8.18
2022-09-26T01:37:41.694Z,8.15
2022-09-26T01:38:41.687Z,8.09
2022-09-26T01:39:41.680Z,8.13
2022-09-26T01:40:41.758Z,8.26
2022-09-26T01:41:41.683Z,8.23
2022-09-26T01:42:41.663Z,8.10
2022-09-26T01:43:41.651Z,8.01
2022-09-26T01:44:41.642Z,8.00
2022-09-26T01:45:41.720Z,7.95
2022-09-26T01:46:41.666Z,7.97
2022-09-26T01:47:41.623Z,7.83
2022-09-26T01:48:41.625Z,7.82
2022-09-26T01:49:41.633Z,7.70
2022-09-26T01:50:41.614Z,7.67
2022-09-26T01:51:41.626Z,7.70
2022-09-26T01:52:41.626Z,7.61
2022-09-26T01:53:41.590Z,7.60
2022-09-26T01:54:41.588Z,7.58
2022-09-26T01:55:41.577Z,7.51
2022-09-26T01:56:41.569Z,7.60
2022-09-26T01:57:41.564Z,7.76
2022-09-26T01:58:41.581Z,7.83
2022-09-26T01:59:41.548Z,7.83
2022-09-26T02:00:41.571Z,7.83
2022-09-26T02:01:41.620Z,7.82
2022-09-26T02:02:41.605Z,7.79
2022-09-26T02:03:41.525Z,7.76
2022-09-26T02:04:41.530Z,7.75
2022-09-26T02:05:41.542Z,7.76
2022-09-26T02:06:41.513Z,7.79
2022-09-26T02:07:41.507Z,7.87
2022-09-26T02:08:41.502Z,7.80
2022-09-26T02:09:41.500Z,7.88
2022-09-26T02:10:41.537Z,7.79
2022-09-26T02:11:41.487Z,7.69
2022-09-26T02:12:41.492Z,7.77
2022-09-26T02:13:41.480Z,7.51
2022-09-26T02:14:41.465Z,7.67
2022-09-26T02:15:41.455Z,7.54
2022-09-26T02:16:41.550Z,7.45
2022-09-26T02:17:41.452Z,7.45
2022-09-26T02:18:41.439Z,7.50
2022-09-26T02:19:41.437Z,7.54
2022-09-26T02:20:41.430Z,7.45
2022-09-26T02:21:41.438Z,7.54
2022-09-26T02:22:41.417Z,7.47
2022-09-26T02:23:41.409Z,7.56
2022-09-26T02:24:41.414Z,7.50
2022-09-26T02:25:41.425Z,7.45
2022-09-26T02:26:41.391Z,7.53
2022-09-26T02:27:41.420Z,7.47
2022-09-26T02:28:41.376Z,7.61
2022-09-26T02:29:41.373Z,7.69
2022-09-26T02:30:41.361Z,7.70
2022-09-26T02:31:41.434Z,7.72
2022-09-26T02:32:41.348Z,7.69
2022-09-26T02:33:41.343Z,7.70
2022-09-26T02:34:41.335Z,7.85
2022-09-26T02:35:41.341Z,7.79
2022-09-26T02:36:41.342Z,7.72
2022-09-26T02:37:41.345Z,7.72
2022-09-26T02:38:41.312Z,7.72
2022-09-26T02:39:41.320Z,7.67
2022-09-26T02:40:41.370Z,7.57
2022-09-26T02:41:41.313Z,7.61
2022-09-26T02:42:41.301Z,7.70
2022-09-26T02:43:41.295Z,7.60
2022-09-26T02:44:41.285Z,7.57
2022-09-26T02:45:41.366Z,7.56
2022-09-26T02:46:41.284Z,7.42
2022-09-26T02:47:41.286Z,7.42
2022-09-26T02:48:41.255Z,7.51
2022-09-26T02:49:41.263Z,7.42
2022-09-26T02:50:41.261Z,7.33
2022-09-26T02:51:41.277Z,7.39
2022-09-26T02:52:41.257Z,7.43
2022-09-26T02:53:41.254Z,7.32
2022-09-26T02:54:41.232Z,7.24
2022-09-26T02:55:41.226Z,7.32
2022-09-26T02:56:41.234Z,7.31
2022-09-26T02:57:41.208Z,7.32
2022-09-26T02:58:41.234Z,7.42
2022-09-26T02:59:41.215Z,7.29
2022-09-26T03:00:41.230Z,7.48
2022-09-26T03:01:41.352Z,7.29
2022-09-26T03:02:41.176Z,7.28
2022-09-26T03:03:41.213Z,7.32
2022-09-26T03:04:41.254Z,7.33
2022-09-26T03:05:41.165Z,7.39
2022-09-26T03:06:41.173Z,7.35
2022-09-26T03:07:41.151Z,7.32
2022-09-26T03:08:41.185Z,7.40
2022-09-26T03:09:41.142Z,7.35
2022-09-26T03:10:41.138Z,7.35
2022-09-26T03:11:41.128Z,7.39
2022-09-26T03:12:41.133Z,7.43
2022-09-26T03:13:41.111Z,7.47
2022-09-26T03:14:41.143Z,7.35
2022-09-26T03:15:41.100Z,7.47
2022-09-26T03:16:41.170Z,7.43
2022-09-26T03:17:41.101Z,7.50
2022-09-26T03:18:41.087Z,7.42
2022-09-26T03:19:41.089Z,7.38
2022-09-26T03:20:41.102Z,7.43
2022-09-26T03:21:41.074Z,7.39
2022-09-26T03:22:41.068Z,7.38
2022-09-26T03:23:41.053Z,7.47
2022-09-26T03:24:41.059Z,7.39
2022-09-26T03:25:41.060Z,7.39
2022-09-26T03:26:41.041Z,7.42
2022-09-26T03:27:41.033Z,7.51
2022-09-26T03:28:41.032Z,7.57
2022-09-26T03:29:41.017Z,7.51
2022-09-26T03:30:41.012Z,7.54
2022-09-26T03:31:41.056Z,7.67
2022-09-26T03:32:40.999Z,7.50
2022-09-26T03:33:41.034Z,7.61
2022-09-26T03:34:40.994Z,7.66
2022-09-26T03:35:40.997Z,7.66
2022-09-26T03:36:40.996Z,7.67
2022-09-26T03:37:40.992Z,7.57
2022-09-26T03:38:40.970Z,7.47
2022-09-26T03:39:40.964Z,7.54
2022-09-26T03:40:41.022Z,7.56
2022-09-26T03:41:40.963Z,7.76
2022-09-26T03:42:40.986Z,7.58
2022-09-26T03:43:40.941Z,7.60
2022-09-26T03:44:40.944Z,7.54
2022-09-26T03:45:40.973Z,7.53
2022-09-26T03:46:40.922Z,7.54
2022-09-26T03:47:40.917Z,7.47
2022-09-26T03:48:40.946Z,7.48
2022-09-26T03:49:40.918Z,7.50
2022-09-26T03:50:40.929Z,7.63
2022-09-26T03:51:40.893Z,7.48
2022-09-26T03:52:40.898Z,7.42
2022-09-26T03:53:40.889Z,7.50
2022-09-26T03:54:40.898Z,7.47
2022-09-26T03:55:40.884Z,7.45
2022-09-26T03:56:40.861Z,7.45
2022-09-26T03:57:40.849Z,7.38
2022-09-26T03:58:40.850Z,7.39
2022-09-26T03:59:40.835Z,7.51
2022-09-26T04:00:40.900Z,7.42
2022-09-26T04:01:40.873Z,7.39
2022-09-26T04:02:40.868Z,7.39
2022-09-26T04:03:40.815Z,7.39
2022-09-26T04:04:40.827Z,7.39
2022-09-26T04:05:40.809Z,7.39
2022-09-26T04:06:40.811Z,7.50
2022-09-26T04:07:40.813Z,7.50
2022-09-26T04:08:40.793Z,7.53
2022-09-26T04:09:40.784Z,7.56
2022-09-26T04:10:40.778Z,7.72
2022-09-26T04:11:40.777Z,7.50
2022-09-26T04:12:40.779Z,7.67
2022-09-26T04:13:51.278Z,7.51
2022-09-26T04:14:41.757Z,7.60
2022-09-26T04:15:40.745Z,7.51
2022-09-26T04:16:40.816Z,7.48
2022-09-26T04:17:40.735Z,7.53
2022-09-26T04:18:40.732Z,7.51
2022-09-26T04:19:40.742Z,7.47
2022-09-26T04:20:40.718Z,7.53
2022-09-26T04:21:40.730Z,7.53
2022-09-26T04:22:40.714Z,7.53
2022-09-26T04:23:40.695Z,7.51
2022-09-26T04:24:40.699Z,7.50
2022-09-26T04:25:40.695Z,7.47
2022-09-26T04:26:40.675Z,7.56
2022-09-26T04:27:40.709Z,7.36
2022-09-26T04:28:40.680Z,7.40
2022-09-26T04:29:40.662Z,7.47
2022-09-26T04:30:40.659Z,7.42
2022-09-26T04:31:40.687Z,7.36
2022-09-26T04:32:40.653Z,7.39
2022-09-26T04:33:40.670Z,7.31
2022-09-26T04:34:40.645Z,7.45
2022-09-26T04:35:40.633Z,7.35
2022-09-26T04:36:47.644Z,7.36
2022-09-26T04:37:40.627Z,7.43
2022-09-26T04:38:40.621Z,7.45
2022-09-26T04:39:40.631Z,7.43
2022-09-26T04:40:42.834Z,7.48
2022-09-26T04:41:40.608Z,7.53
2022-09-26T04:42:40.597Z,7.50
2022-09-26T04:43:40.602Z,7.38
2022-09-26T04:44:40.607Z,7.50
2022-09-26T04:45:40.647Z,7.50
2022-09-26T04:46:40.589Z,7.50
2022-09-26T04:47:40.576Z,7.66
2022-09-26T04:48:40.569Z,7.58
2022-09-26T04:49:40.581Z,7.63
2022-09-26T04:50:40.551Z,7.58
2022-09-26T04:51:40.553Z,7.60
2022-09-26T04:52:40.574Z,7.51
2022-09-26T04:53:40.538Z,7.57
2022-09-26T04:54:40.528Z,7.73
2022-09-26T04:55:40.515Z,7.61
2022-09-26T04:56:40.557Z,7.61
2022-09-26T04:57:40.518Z,7.57
2022-09-26T04:58:40.499Z,7.70
2022-09-26T04:59:40.494Z,7.77
2022-09-26T05:00:40.542Z,7.76
2022-09-26T05:01:40.609Z,7.61
2022-09-26T05:02:40.539Z,7.69
2022-09-26T05:03:40.466Z,7.56
2022-09-26T05:04:40.483Z,7.72
2022-09-26T05:05:40.465Z,7.69
2022-09-26T05:06:40.463Z,7.77
2022-09-26T05:07:40.457Z,7.67
2022-09-26T05:08:40.463Z,7.70
2022-09-26T05:09:40.462Z,7.79
2022-09-26T05:10:40.433Z,7.85
2022-09-26T05:11:40.429Z,7.88
2022-09-26T05:12:40.430Z,7.88
2022-09-26T05:13:40.419Z,7.83
2022-09-26T05:14:40.419Z,7.90
2022-09-26T05:15:40.432Z,7.93
2022-09-26T05:16:40.445Z,7.90
2022-09-26T05:17:40.401Z,7.88
2022-09-26T05:18:40.410Z,7.88
2022-09-26T05:19:40.381Z,7.95
2022-09-26T05:20:40.379Z,7.98
2022-09-26T05:21:40.394Z,7.94
2022-09-26T05:22:40.382Z,7.94
2022-09-26T05:23:44.606Z,7.91
2022-09-26T05:24:40.368Z,8.08
2022-09-26T05:25:40.346Z,8.10
2022-09-26T05:26:40.348Z,8.18
2022-09-26T05:27:40.351Z,8.24
2022-09-26T05:28:40.339Z,8.33
2022-09-26T05:29:40.333Z,8.20
2022-09-26T05:30:40.362Z,8.18
2022-09-26T05:31:40.390Z,8.24
2022-09-26T05:32:40.328Z,8.05
2022-09-26T05:33:40.308Z,8.06
2022-09-26T05:34:40.297Z,8.10
2022-09-26T05:35:40.292Z,8.24
2022-09-26T05:36:40.291Z,8.16
2022-09-26T05:37:40.288Z,8.18
2022-09-26T05:38:40.294Z,8.33
2022-09-26T05:39:42.428Z,8.28
2022-09-26T05:40:40.313Z,8.30
2022-09-26T05:41:40.241Z,8.36
2022-09-26T05:42:40.240Z,8.36
2022-09-26T05:43:40.257Z,8.37
2022-09-26T05:44:40.254Z,8.36
2022-09-26T05:45:40.241Z,8.38
2022-09-26T05:46:40.286Z,8.46
2022-09-26T05:47:40.220Z,8.55
2022-09-26T05:48:40.216Z,8.51
2022-09-26T05:49:40.242Z,8.49
2022-09-26T05:50:43.472Z,8.56
2022-09-26T05:51:40.180Z,8.48
2022-09-26T05:52:40.186Z,8.58
2022-09-26T05:53:40.173Z,8.58
2022-09-26T05:54:40.169Z,8.60
2022-09-26T05:55:40.184Z,8.56
2022-09-26T05:56:40.241Z,8.52
2022-09-26T05:57:40.176Z,8.63
2022-09-26T05:58:40.139Z,8.74
2022-09-26T05:59:40.127Z,8.60
2022-09-26T06:00:40.207Z,8.67
2022-09-26T06:01:40.205Z,8.66
2022-09-26T06:02:40.148Z,8.71
2022-09-26T06:03:40.132Z,8.67
2022-09-26T06:04:40.109Z,8.81
2022-09-26T06:05:40.097Z,8.88
2022-09-26T06:06:40.093Z,8.94
2022-09-26T06:07:40.094Z,8.92
2022-09-26T06:08:40.102Z,8.79
2022-09-26T06:09:40.093Z,8.92
2022-09-26T06:10:40.069Z,8.92
2022-09-26T06:11:40.057Z,8.89
2022-09-26T06:12:40.127Z,8.91
2022-09-26T06:13:40.066Z,8.79
2022-09-26T06:14:40.069Z,8.87
2022-09-26T06:15:40.039Z,8.89
2022-09-26T06:16:40.105Z,8.97
2022-09-26T06:17:40.023Z,9.04
2022-09-26T06:18:40.018Z,9.08
2022-09-26T06:19:40.017Z,9.13
2022-09-26T06:20:40.042Z,9.18
2022-09-26T06:21:40.020Z,9.18
2022-09-26T06:22:40.018Z,9.19
2022-09-26T06:23:40.011Z,9.25
2022-09-26T06:24:40.030Z,9.25
2022-09-26T06:25:39.990Z,9.29
2022-09-26T06:26:39.978Z,9.28
2022-09-26T06:27:39.971Z,9.43
2022-09-26T06:28:39.997Z,9.37
2022-09-26T06:29:39.954Z,9.43
2022-09-26T06:30:39.978Z,9.39
2022-09-26T06:31:40.034Z,9.39
2022-09-26T06:32:39.945Z,9.36
2022-09-26T06:33:39.942Z,9.43
2022-09-26T06:34:39.967Z,9.39
2022-09-26T06:35:39.939Z,9.28
2022-09-26T06:36:39.929Z,9.36
2022-09-26T06:37:39.917Z,9.43
2022-09-26T06:38:39.927Z,9.43
2022-09-26T06:39:39.903Z,9.34
2022-09-26T06:40:39.942Z,9.41
2022-09-26T06:41:39.897Z,9.40
2022-09-26T06:42:39.894Z,9.40
2022-09-26T06:43:39.878Z,9.41
2022-09-26T06:44:39.999Z,9.37
2022-09-26T06:45:39.873Z,9.43
2022-09-26T06:46:39.892Z,9.36
2022-09-26T06:47:39.862Z,9.37
2022-09-26T06:48:39.854Z,9.41
2022-09-26T06:49:39.837Z,9.55
2022-09-26T06:50:39.854Z,9.56
2022-09-26T06:51:39.832Z,9.48
2022-09-26T06:52:39.832Z,9.66
2022-09-26T06:53:39.809Z,9.73
2022-09-26T06:54:39.806Z,9.68
2022-09-26T06:55:39.799Z,9.73
2022-09-26T06:56:39.822Z,9.73
2022-09-26T06:57:39.789Z,9.72
2022-09-26T06:58:39.806Z,9.76
2022-09-26T06:59:39.795Z,9.73
2022-09-26T07:00:39.937Z,9.79
2022-09-26T07:01:39.940Z,9.74
2022-09-26T07:02:39.797Z,9.73
2022-09-26T07:03:45.181Z,9.77
2022-09-26T07:04:40.751Z,9.66
2022-09-26T07:05:39.761Z,9.73
2022-09-26T07:06:39.767Z,9.80
2022-09-26T07:07:39.725Z,9.79
2022-09-26T07:09:00.788Z,9.89
2022-09-26T07:09:40.727Z,10.01
2022-09-26T07:10:39.708Z,9.94
2022-09-26T07:11:56.636Z,9.86
2022-09-26T07:12:40.723Z,9.91
2022-09-26T07:13:39.699Z,9.98
2022-09-26T07:14:39.685Z,10.02
2022-09-26T07:15:39.679Z,9.97
2022-09-26T07:16:39.715Z,10.10
2022-09-26T07:17:39.672Z,10.04
2022-09-26T07:18:39.692Z,10.17
2022-09-26T07:19:39.657Z,10.19
2022-09-26T07:20:39.658Z,10.10
2022-09-26T07:21:39.684Z,10.12
2022-09-26T07:22:39.662Z,10.16
2022-09-26T07:23:39.632Z,10.16
2022-09-26T07:24:39.640Z,10.16
2022-09-26T07:25:39.651Z,10.20
2022-09-26T07:26:39.617Z,10.37
2022-09-26T07:27:39.602Z,10.35
2022-09-26T07:28:39.600Z,10.42
2022-09-26T07:29:39.611Z,10.44
2022-09-26T07:30:39.592Z,10.54
2022-09-26T07:31:39.661Z,10.81
2022-09-26T07:32:39.585Z,10.79
2022-09-26T07:33:39.584Z,10.96
2022-09-26T07:34:39.568Z,11.08
2022-09-26T07:35:39.579Z,10.99
2022-09-26T07:36:39.576Z,11.10
2022-09-26T07:37:39.570Z,11.07
2022-09-26T07:38:39.569Z,11.10
2022-09-26T07:39:39.531Z,11.00
2022-09-26T07:40:39.565Z,11.27
2022-09-26T07:41:39.541Z,11.35
2022-09-26T07:42:39.503Z,11.75
2022-09-26T07:45:39.510Z,12.40
2022-09-26T07:46:39.562Z,12.35
2022-09-26T07:47:39.481Z,12.83
2022-09-26T07:48:39.480Z,13.08
2022-09-26T07:49:39.464Z,13.44
2022-09-26T07:50:39.467Z,14.14
2022-09-26T07:51:39.466Z,14.43
2022-09-26T07:52:39.467Z,14.18
2022-09-26T07:53:39.459Z,15.24
2022-09-26T07:54:39.433Z,14.96
2022-09-26T07:55:39.422Z,15.70
2022-09-26T07:56:39.424Z,15.58
2022-09-26T07:57:39.439Z,15.55
2022-09-26T07:58:39.414Z,16.31
2022-09-26T07:59:39.404Z,16.13
2022-09-26T08:00:39.394Z,16.97
2022-09-26T08:01:39.482Z,16.78
2022-09-26T08:02:39.420Z,17.68
2022-09-26T08:03:39.372Z,18.25
2022-09-26T08:04:39.525Z,17.80
2022-09-26T08:05:39.354Z,18.84
2022-09-26T08:06:39.344Z,19.19
2022-09-26T08:07:39.336Z,18.95
2022-09-26T08:08:39.338Z,19.81
2022-09-26T08:09:39.326Z,19.51
2022-09-26T08:10:39.350Z,19.54
2022-09-26T08:11:39.304Z,18.47
2022-09-26T08:12:39.305Z,17.90
2022-09-26T08:13:39.295Z,17.59
2022-09-26T08:14:39.294Z,17.48
2022-09-26T08:15:39.371Z,17.33
2022-09-26T08:16:39.339Z,17.56
2022-09-26T08:17:39.267Z,17.82
2022-09-26T08:18:39.255Z,18.03
2022-09-26T08:19:39.254Z,18.10
2022-09-26T08:20:39.237Z,17.67
2022-09-26T08:21:39.272Z,18.40
2022-09-26T08:22:39.222Z,18.40
2022-09-26T08:23:39.211Z,17.57
2022-09-26T08:24:39.215Z,17.06
2022-09-26T08:25:39.197Z,16.64
2022-09-26T08:26:43.928Z,17.80
2022-09-26T08:27:40.203Z,17.60
2022-09-26T08:28:39.207Z,18.59
2022-09-26T08:29:39.175Z,18.38
2022-09-26T08:30:39.154Z,19.88
2022-09-26T08:31:39.198Z,20.81
2022-09-26T08:32:39.131Z,21.21
2022-09-26T08:33:39.134Z,21.57
2022-09-26T08:34:39.140Z,21.89
2022-09-26T08:35:39.107Z,22.38
2022-09-26T08:36:39.093Z,22.25
2022-09-26T08:37:39.087Z,21.99
2022-09-26T08:38:39.133Z,21.88
2022-09-26T08:39:39.066Z,21.92
2022-09-26T08:40:39.139Z,22.25
2022-09-26T08:41:39.049Z,22.00
2022-09-26T08:42:39.079Z,22.54
2022-09-26T08:43:39.041Z,23.00
2022-09-26T08:44:39.059Z,21.58
2022-09-26T08:45:39.025Z,21.39
2022-09-26T08:46:39.094Z,20.96
2022-09-26T08:47:39.013Z,21.14
2022-09-26T08:48:39.014Z,21.05
2022-09-26T08:49:39.019Z,21.39
2022-09-26T08:50:38.989Z,21.60
2022-09-26T08:51:38.979Z,21.91
2022-09-26T08:52:38.987Z,21.37
2022-09-26T08:53:38.986Z,21.24
2022-09-26T08:54:38.954Z,21.12
2022-09-26T08:55:38.951Z,21.69
2022-09-26T08:56:38.932Z,20.82
2022-09-26T08:57:38.950Z,20.03
2022-09-26T08:58:38.958Z,18.88
2022-09-26T08:59:38.920Z,19.08
2022-09-26T09:00:38.911Z,18.34
2022-09-26T09:01:39.076Z,17.24
2022-09-26T09:02:39.120Z,16.71
2022-09-26T09:03:38.913Z,15.92
2022-09-26T09:04:38.874Z,15.67
2022-09-26T09:05:38.866Z,15.49
2022-09-26T09:06:38.864Z,16.71
2022-09-26T09:07:38.867Z,17.65
2022-09-26T09:08:38.836Z,17.49
2022-09-26T09:09:38.862Z,16.79
2022-09-26T09:10:38.870Z,16.41
2022-09-26T09:11:38.817Z,16.46
2022-09-26T09:12:38.803Z,17.08
2022-09-26T09:13:38.794Z,17.89
2022-09-26T09:14:38.799Z,18.62
2022-09-26T09:15:38.817Z,19.04
2022-09-26T09:16:38.806Z,19.12
2022-09-26T09:17:38.766Z,18.98
2022-09-26T09:18:38.779Z,19.00
2022-09-26T09:19:38.741Z,19.00
2022-09-26T09:20:38.751Z,18.58
2022-09-26T09:21:41.814Z,18.52
2022-09-26T09:22:38.766Z,17.90
2022-09-26T09:23:38.721Z,17.41
2022-09-26T09:24:38.705Z,17.89
2022-09-26T09:25:38.704Z,18.20
2022-09-26T09:27:55.459Z,18.53
2022-09-26T09:28:39.689Z,18.52
2022-09-26T09:29:38.683Z,18.35
2022-09-26T09:30:38.670Z,18.43
2022-09-26T09:31:38.701Z,17.97
2022-09-26T09:32:38.643Z,17.64
2022-09-26T09:33:38.667Z,17.68
2022-09-26T09:34:38.617Z,17.44
2022-09-26T09:35:38.627Z,17.44
2022-09-26T09:36:38.620Z,17.15
2022-09-26T09:37:38.600Z,17.09
2022-09-26T09:38:38.615Z,17.22
2022-09-26T09:39:38.576Z,17.15
2022-09-26T09:40:38.648Z,17.29
2022-09-26T09:41:38.574Z,17.08
2022-09-26T09:42:38.565Z,17.22
2022-09-26T09:43:38.567Z,17.38
2022-09-26T09:44:41.946Z,17.44
2022-09-26T09:45:38.536Z,17.30
2022-09-26T09:46:38.586Z,17.36
2022-09-26T09:47:38.516Z,17.30
2022-09-26T09:48:38.494Z,17.19
2022-09-26T09:49:38.485Z,17.19
2022-09-26T09:50:38.480Z,17.09
2022-09-26T09:51:39.615Z,16.91
2022-09-26T09:52:38.453Z,17.01
2022-09-26T09:53:38.442Z,17.15
2022-09-26T09:54:38.451Z,17.39
2022-09-26T09:55:38.434Z,17.41
2022-09-26T09:56:38.428Z,17.57
2022-09-26T09:57:38.508Z,17.67
2022-09-26T09:58:38.424Z,17.59
2022-09-26T09:59:38.401Z,17.82
2022-09-26T10:00:38.388Z,17.85
2022-09-26T10:01:38.385Z,17.95
2022-09-26T10:02:38.459Z,17.57
2022-09-26T10:03:38.389Z,17.65
2022-09-26T10:04:38.363Z,17.31
2022-09-26T10:05:38.370Z,17.19
2022-09-26T10:06:46.189Z,17.23
2022-09-26T10:07:39.356Z,17.41
2022-09-26T10:08:38.350Z,17.65
2022-09-26T10:09:39.991Z,17.64
2022-09-26T10:10:38.310Z,17.86
2022-09-26T10:11:38.294Z,18.05
2022-09-26T10:12:38.300Z,18.01
2022-09-26T10:13:38.278Z,18.11
2022-09-26T10:14:38.287Z,18.41
2022-09-26T10:15:38.294Z,18.20
2022-09-26T10:16:38.263Z,18.19
2022-09-26T10:17:38.294Z,17.87
2022-09-26T10:18:38.230Z,17.71
2022-09-26T10:19:38.230Z,17.36
2022-09-26T10:20:38.221Z,17.05
2022-09-26T10:21:38.216Z,17.19
2022-09-26T10:22:38.206Z,17.11
2022-09-26T10:23:38.226Z,17.16
2022-09-26T10:24:38.188Z,17.26
2022-09-26T10:25:38.178Z,17.41
2022-09-26T10:26:38.176Z,17.46
2022-09-26T10:27:38.292Z,17.33
2022-09-26T10:28:38.232Z,17.23
2022-09-26T10:29:38.214Z,17.20
2022-09-26T10:30:38.142Z,17.46
2022-09-26T10:31:42.359Z,17.59
2022-09-26T10:32:38.127Z,17.44
2022-09-26T10:33:38.113Z,17.38
2022-09-26T10:34:38.117Z,17.48
2022-09-26T10:35:38.119Z,17.19
2022-09-26T10:36:38.089Z,17.20
2022-09-26T10:37:38.786Z,17.08
2022-09-26T10:38:38.075Z,17.14
2022-09-26T10:39:38.086Z,17.49
2022-09-26T10:40:38.092Z,17.51
2022-09-26T10:41:38.035Z,17.67
2022-09-26T10:42:38.044Z,17.57
2022-09-26T10:43:38.072Z,17.49
2022-09-26T10:44:38.011Z,17.15
2022-09-26T10:45:38.037Z,17.20
2022-09-26T10:46:38.056Z,17.56
2022-09-26T10:47:37.992Z,17.60
2022-09-26T10:48:37.990Z,17.67
2022-09-26T10:49:38.010Z,17.74
2022-09-26T10:50:37.964Z,17.64
2022-09-26T10:51:37.959Z,17.44
2022-09-26T10:52:37.950Z,17.51
2022-09-26T10:53:37.957Z,17.65
2022-09-26T10:54:37.931Z,17.76
2022-09-26T10:55:37.946Z,17.79
2022-09-26T10:56:37.918Z,17.26
2022-09-26T10:57:37.904Z,17.02
2022-09-26T10:58:37.901Z,16.90
2022-09-26T10:59:37.883Z,16.90
2022-09-26T11:00:37.919Z,16.93
2022-09-26T11:01:37.966Z,17.41
2022-09-26T11:02:37.874Z,17.41
2022-09-26T11:03:37.894Z,17.12
2022-09-26T11:04:37.875Z,17.01
2022-09-26T11:05:37.851Z,16.68
2022-09-26T11:06:37.837Z,16.64
2022-09-26T11:07:37.835Z,16.78
2022-09-26T11:08:37.827Z,16.79
2022-09-26T11:09:37.793Z,16.71
2022-09-26T11:10:37.829Z,16.60
2022-09-26T11:11:37.797Z,16.58
2022-09-26T11:12:37.798Z,16.53
2022-09-26T11:13:37.796Z,16.53
2022-09-26T11:14:37.763Z,16.41
2022-09-26T11:15:37.816Z,16.39
2022-09-26T11:16:37.866Z,16.31
2022-09-26T11:17:37.737Z,16.46
2022-09-26T11:18:37.743Z,16.83
2022-09-26T11:19:37.703Z,16.94
2022-09-26T11:20:37.716Z,16.89
2022-09-26T11:21:37.708Z,16.84
2022-09-26T11:22:37.695Z,16.66
2022-09-26T11:23:37.677Z,16.64
2022-09-26T11:24:37.687Z,16.53
2022-09-26T11:25:37.660Z,16.53
2022-09-26T11:26:37.647Z,16.60
2022-09-26T11:27:37.643Z,16.66
2022-09-26T11:28:37.649Z,16.43
2022-09-26T11:29:37.637Z,16.38
2022-09-26T11:30:37.641Z,16.31
2022-09-26T11:31:37.658Z,16.33
2022-09-26T11:32:37.588Z,16.20
2022-09-26T11:33:37.591Z,16.13
2022-09-26T11:34:37.586Z,16.10
2022-09-26T11:35:37.560Z,15.90
2022-09-26T11:36:37.580Z,16.00
2022-09-26T11:37:37.560Z,15.91
2022-09-26T11:38:37.549Z,15.84
2022-09-26T11:39:37.571Z,15.91
2022-09-26T11:40:37.567Z,15.77
2022-09-26T11:41:37.552Z,15.67
2022-09-26T11:42:37.511Z,15.72
2022-09-26T11:43:37.493Z,15.79
2022-09-26T11:44:37.493Z,15.67
2022-09-26T11:45:40.898Z,15.70
2022-09-26T11:46:38.565Z,15.73
2022-09-26T11:47:37.459Z,15.72
2022-09-26T11:48:37.487Z,15.73
2022-09-26T11:49:37.436Z,15.59
2022-09-26T11:50:37.466Z,15.58
2022-09-26T11:51:37.431Z,15.54
2022-09-26T11:52:37.424Z,15.67
2022-09-26T11:53:37.414Z,15.76
2022-09-26T11:54:37.432Z,15.83
2022-09-26T11:55:37.419Z,16.00
2022-09-26T11:56:37.410Z,16.17
2022-09-26T11:57:37.379Z,16.21
2022-09-26T11:58:37.377Z,16.09
2022-09-26T11:59:37.361Z,16.08
2022-09-26T12:00:37.351Z,16.13
2022-09-26T12:01:37.381Z,16.02
2022-09-26T12:02:37.495Z,16.20
2022-09-26T12:03:37.459Z,16.41
2022-09-26T12:04:37.326Z,16.49
2022-09-26T12:05:37.317Z,16.50
2022-09-26T12:06:37.304Z,16.36
2022-09-26T12:07:37.293Z,16.15
2022-09-26T12:08:37.285Z,15.91
2022-09-26T12:09:37.294Z,15.80
2022-09-26T12:10:37.273Z,15.79
2022-09-26T12:11:37.250Z,15.79
2022-09-26T12:12:40.545Z,15.97
2022-09-26T12:13:37.258Z,15.92
2022-09-26T12:14:37.240Z,15.80
2022-09-26T12:15:37.246Z,15.73
2022-09-26T12:16:37.226Z,15.65
2022-09-26T12:17:37.203Z,15.58
2022-09-26T12:18:37.245Z,15.61
2022-09-26T12:19:37.194Z,15.67
2022-09-26T12:20:37.197Z,15.46
2022-09-26T12:21:37.180Z,15.46
2022-09-26T12:22:37.150Z,15.36
2022-09-26T12:23:37.163Z,15.33
2022-09-26T12:24:37.133Z,15.22
2022-09-26T12:25:37.141Z,15.22
2022-09-26T12:26:37.150Z,15.11
2022-09-26T12:27:37.113Z,15.24
2022-09-26T12:28:37.131Z,15.24
2022-09-26T12:29:37.124Z,15.21
2022-09-26T12:30:37.101Z,15.29
2022-09-26T12:31:37.169Z,15.21
2022-09-26T12:32:37.110Z,15.22
2022-09-26T12:33:37.070Z,15.15
2022-09-26T12:34:37.069Z,15.18
2022-09-26T12:35:37.075Z,15.04
2022-09-26T12:36:37.073Z,15.06
2022-09-26T12:37:37.063Z,15.02
2022-09-26T12:38:37.063Z,14.96
2022-09-26T12:39:37.027Z,14.97
2022-09-26T12:40:37.168Z,14.89
2022-09-26T12:41:37.012Z,14.79
2022-09-26T12:42:36.989Z,14.82
2022-09-26T12:43:36.986Z,14.81
2022-09-26T12:44:36.991Z,14.78
2022-09-26T12:45:36.992Z,14.70
2022-09-26T12:46:37.014Z,14.63
2022-09-26T12:47:36.948Z,14.63
2022-09-26T12:48:36.998Z,14.63
2022-09-26T12:49:36.937Z,14.66
2022-09-26T12:50:36.938Z,14.70
2022-09-26T12:51:36.954Z,14.62
2022-09-26T12:52:36.910Z,14.65
2022-09-26T12:53:36.913Z,14.68
2022-09-26T12:54:36.905Z,14.77
2022-09-26T12:55:36.907Z,14.73
2022-09-26T12:56:36.905Z,14.82
2022-09-26T12:57:36.889Z,14.68
2022-09-26T12:58:36.918Z,14.78
2022-09-26T12:59:38.835Z,14.82
2022-09-26T13:00:36.839Z,14.79
2022-09-26T13:01:36.866Z,14.99
2022-09-26T13:02:36.901Z,15.06
2022-09-26T13:03:36.837Z,15.04
2022-09-26T13:04:36.848Z,15.18
2022-09-26T13:05:36.802Z,15.06
2022-09-26T13:06:36.790Z,15.24
2022-09-26T13:07:36.772Z,15.33
2022-09-26T13:08:36.783Z,15.44
2022-09-26T13:09:36.770Z,15.47